Aviation Digital Data Service (ADDS)

Output produced by METARs form (0627 UTC 19 February 2019)
found at http://www.aviationweather.gov/metar/data/
 
Forecast for: UGKO (KOPITNARI , GE)
Text: TAF UGKO 190500Z 1906/2006 25016KT 9999 SCT030 BKN045 TX08/1911Z TNM02/2003Z
Forecast period: 0600 to 1400 UTC 19 February 2019
Forecast type: FROM: standard forecast or significant change
Winds: from the WSW (250 degrees) at 18 MPH (16 knots; 8.2 m/s)
Visibility: 6 or more miles 10+ km)
Ceiling: 4500 feet AGL
Clouds: scattered clouds at 3000 feet AGL
broken clouds at 4500 feet AGL
Weather: no significant weather forecast for this period
Text: TEMPO 1906/1910 RA
Forecast period: 0600 to 1000 UTC 19 February 2019
Forecast type: TEMPORARY: The following changes expected for less than half the time period
Visibility: missing
Ceiling: unknown
Clouds: missing
Weather: RA  (moderate rain)
Text: BECMG 1914/1916 09006KT CAVOK
Forecast period: 1400 UTC 19 February 2019 to 0600 UTC 20 February 2019
Forecast type: BECOMING: Conditions expected to become as follows by 1600 UTC 19 February 2019
Winds: from the E (90 degrees) at 7 MPH (6 knots; 3.1 m/s)
Visibility: 6 or more miles 10+ km)
Ceiling: unknown
Clouds: missing
Weather: NSW  (no significant weather)